sensor_id;sensor_type;location;lat;lon;timestamp;P1;durP1;ratioP1;P2;durP2;ratioP2
21721;SDS011;11023;48.274;7.794;2023-03-04T00:01:10;77.45;;;39.97;;
21721;SDS011;11023;48.274;7.794;2023-03-04T00:03:36;73.18;;;39.83;;
21721;SDS011;11023;48.274;7.794;2023-03-04T00:06:01;73.38;;;39.90;;
21721;SDS011;11023;48.274;7.794;2023-03-04T00:08:28;73.03;;;40.10;;
21721;SDS011;11023;48.274;7.794;2023-03-04T00:10:53;73.93;;;40.10;;
21721;SDS011;11023;48.274;7.794;2023-03-04T00:13:19;71.18;;;39.10;;
21721;SDS011;11023;48.274;7.794;2023-03-04T00:15:46;70.55;;;38.10;;
21721;SDS011;11023;48.274;7.794;2023-03-04T00:18:12;76.88;;;40.65;;
21721;SDS011;11023;48.274;7.794;2023-03-04T00:20:38;72.00;;;39.63;;
21721;SDS011;11023;48.274;7.794;2023-03-04T00:23:04;74.85;;;40.15;;
21721;SDS011;11023;48.274;7.794;2023-03-04T00:25:29;78.82;;;40.17;;
21721;SDS011;11023;48.274;7.794;2023-03-04T00:27:55;73.03;;;38.35;;
21721;SDS011;11023;48.274;7.794;2023-03-04T00:30:22;74.53;;;40.40;;
21721;SDS011;11023;48.274;7.794;2023-03-04T00:32:48;73.80;;;40.85;;
21721;SDS011;11023;48.274;7.794;2023-03-04T00:35:14;68.43;;;38.17;;
21721;SDS011;11023;48.274;7.794;2023-03-04T00:37:40;80.20;;;40.83;;
21721;SDS011;11023;48.274;7.794;2023-03-04T00:40:05;76.28;;;39.15;;
21721;SDS011;11023;48.274;7.794;2023-03-04T00:42:32;75.47;;;39.65;;
21721;SDS011;11023;48.274;7.794;2023-03-04T00:44:57;68.80;;;38.35;;
21721;SDS011;11023;48.274;7.794;2023-03-04T00:47:23;73.32;;;39.70;;
21721;SDS011;11023;48.274;7.794;2023-03-04T00:49:49;71.68;;;38.72;;
21721;SDS011;11023;48.274;7.794;2023-03-04T00:52:14;75.57;;;39.33;;
21721;SDS011;11023;48.274;7.794;2023-03-04T00:54:40;68.85;;;37.45;;
21721;SDS011;11023;48.274;7.794;2023-03-04T00:57:06;77.20;;;40.35;;
21721;SDS011;11023;48.274;7.794;2023-03-04T00:59:31;72.53;;;38.42;;
21721;SDS011;11023;48.274;7.794;2023-03-04T01:01:57;73.15;;;38.67;;
21721;SDS011;11023;48.274;7.794;2023-03-04T01:04:23;72.10;;;38.05;;
21721;SDS011;11023;48.274;7.794;2023-03-04T01:06:48;68.75;;;37.05;;
21721;SDS011;11023;48.274;7.794;2023-03-04T01:09:14;69.47;;;37.55;;
21721;SDS011;11023;48.274;7.794;2023-03-04T01:11:40;65.68;;;37.03;;
21721;SDS011;11023;48.274;7.794;2023-03-04T01:14:05;70.47;;;39.33;;
21721;SDS011;11023;48.274;7.794;2023-03-04T01:16:31;68.13;;;37.40;;
21721;SDS011;11023;48.274;7.794;2023-03-04T01:18:56;69.05;;;36.80;;
21721;SDS011;11023;48.274;7.794;2023-03-04T01:21:22;73.35;;;36.63;;
21721;SDS011;11023;48.274;7.794;2023-03-04T01:23:48;72.80;;;38.20;;
21721;SDS011;11023;48.274;7.794;2023-03-04T01:26:13;68.05;;;37.72;;
21721;SDS011;11023;48.274;7.794;2023-03-04T01:28:39;71.13;;;37.60;;
21721;SDS011;11023;48.274;7.794;2023-03-04T01:31:04;72.82;;;39.10;;
21721;SDS011;11023;48.274;7.794;2023-03-04T01:33:30;73.38;;;37.72;;
21721;SDS011;11023;48.274;7.794;2023-03-04T01:35:56;73.50;;;39.20;;
21721;SDS011;11023;48.274;7.794;2023-03-04T01:38:22;68.18;;;36.88;;
21721;SDS011;11023;48.274;7.794;2023-03-04T01:40:48;73.13;;;37.35;;
21721;SDS011;11023;48.274;7.794;2023-03-04T01:43:18;70.07;;;37.78;;
21721;SDS011;11023;48.274;7.794;2023-03-04T01:45:48;71.65;;;38.65;;
21721;SDS011;11023;48.274;7.794;2023-03-04T01:48:16;75.20;;;37.25;;
21721;SDS011;11023;48.274;7.794;2023-03-04T01:50:46;67.22;;;36.97;;
21721;SDS011;11023;48.274;7.794;2023-03-04T01:53:24;73.68;;;38.40;;
21721;SDS011;11023;48.274;7.794;2023-03-04T01:55:52;71.40;;;37.78;;
21721;SDS011;11023;48.274;7.794;2023-03-04T01:58:20;66.97;;;35.80;;
21721;SDS011;11023;48.274;7.794;2023-03-04T02:00:47;65.35;;;34.42;;
21721;SDS011;11023;48.274;7.794;2023-03-04T02:03:14;66.43;;;36.08;;
21721;SDS011;11023;48.274;7.794;2023-03-04T02:05:44;68.05;;;36.63;;
21721;SDS011;11023;48.274;7.794;2023-03-04T02:08:13;68.47;;;36.55;;
21721;SDS011;11023;48.274;7.794;2023-03-04T02:10:40;63.50;;;35.67;;
21721;SDS011;11023;48.274;7.794;2023-03-04T02:13:07;65.03;;;35.67;;
21721;SDS011;11023;48.274;7.794;2023-03-04T02:15:33;68.65;;;37.08;;
21721;SDS011;11023;48.274;7.794;2023-03-04T02:17:59;76.60;;;36.58;;
21721;SDS011;11023;48.274;7.794;2023-03-04T02:20:47;65.88;;;35.08;;
21721;SDS011;11023;48.274;7.794;2023-03-04T02:28:45;64.55;;;35.13;;
21721;SDS011;11023;48.274;7.794;2023-03-04T02:33:44;69.15;;;36.08;;
21721;SDS011;11023;48.274;7.794;2023-03-04T02:36:10;72.00;;;36.75;;
21721;SDS011;11023;48.274;7.794;2023-03-04T02:38:36;71.22;;;36.60;;
21721;SDS011;11023;48.274;7.794;2023-03-04T02:41:01;69.50;;;37.38;;
21721;SDS011;11023;48.274;7.794;2023-03-04T02:43:28;69.22;;;35.97;;
21721;SDS011;11023;48.274;7.794;2023-03-04T02:45:54;68.40;;;36.15;;
21721;SDS011;11023;48.274;7.794;2023-03-04T02:48:20;70.95;;;38.10;;
21721;SDS011;11023;48.274;7.794;2023-03-04T02:50:49;74.38;;;37.30;;
21721;SDS011;11023;48.274;7.794;2023-03-04T02:53:17;70.00;;;35.88;;
21721;SDS011;11023;48.274;7.794;2023-03-04T02:55:44;67.32;;;36.88;;
21721;SDS011;11023;48.274;7.794;2023-03-04T02:58:10;68.85;;;35.15;;
21721;SDS011;11023;48.274;7.794;2023-03-04T03:00:36;69.32;;;36.20;;
21721;SDS011;11023;48.274;7.794;2023-03-04T03:03:03;64.47;;;35.30;;
21721;SDS011;11023;48.274;7.794;2023-03-04T03:05:30;65.28;;;35.17;;
21721;SDS011;11023;48.274;7.794;2023-03-04T03:07:57;65.03;;;34.78;;
21721;SDS011;11023;48.274;7.794;2023-03-04T03:10:23;66.82;;;34.42;;
21721;SDS011;11023;48.274;7.794;2023-03-04T03:12:49;69.15;;;35.55;;
21721;SDS011;11023;48.274;7.794;2023-03-04T03:15:15;64.50;;;35.28;;
21721;SDS011;11023;48.274;7.794;2023-03-04T03:17:42;63.92;;;33.08;;
21721;SDS011;11023;48.274;7.794;2023-03-04T03:20:09;57.67;;;31.80;;
21721;SDS011;11023;48.274;7.794;2023-03-04T03:22:35;64.85;;;33.80;;
21721;SDS011;11023;48.274;7.794;2023-03-04T03:25:01;64.43;;;34.33;;
21721;SDS011;11023;48.274;7.794;2023-03-04T03:27:27;64.72;;;33.42;;
21721;SDS011;11023;48.274;7.794;2023-03-04T03:29:53;65.38;;;34.10;;
21721;SDS011;11023;48.274;7.794;2023-03-04T03:32:18;65.07;;;34.13;;
21721;SDS011;11023;48.274;7.794;2023-03-04T03:34:44;68.32;;;35.30;;
21721;SDS011;11023;48.274;7.794;2023-03-04T03:37:10;63.72;;;33.58;;
21721;SDS011;11023;48.274;7.794;2023-03-04T03:39:36;71.05;;;35.38;;
21721;SDS011;11023;48.274;7.794;2023-03-04T03:42:01;69.80;;;36.40;;
21721;SDS011;11023;48.274;7.794;2023-03-04T03:44:27;75.13;;;36.58;;
21721;SDS011;11023;48.274;7.794;2023-03-04T03:46:53;67.85;;;34.67;;
21721;SDS011;11023;48.274;7.794;2023-03-04T03:49:18;66.65;;;35.55;;
21721;SDS011;11023;48.274;7.794;2023-03-04T03:51:44;72.38;;;37.03;;
21721;SDS011;11023;48.274;7.794;2023-03-04T03:54:09;71.00;;;35.72;;
21721;SDS011;11023;48.274;7.794;2023-03-04T03:56:35;59.25;;;31.77;;
21721;SDS011;11023;48.274;7.794;2023-03-04T03:59:01;65.20;;;35.22;;
21721;SDS011;11023;48.274;7.794;2023-03-04T04:01:26;61.55;;;34.20;;
21721;SDS011;11023;48.274;7.794;2023-03-04T04:03:52;67.65;;;36.15;;
21721;SDS011;11023;48.274;7.794;2023-03-04T04:06:18;66.47;;;35.92;;
21721;SDS011;11023;48.274;7.794;2023-03-04T04:08:43;66.57;;;35.38;;
21721;SDS011;11023;48.274;7.794;2023-03-04T04:11:10;70.30;;;34.65;;
21721;SDS011;11023;48.274;7.794;2023-03-04T04:13:36;68.90;;;35.95;;
21721;SDS011;11023;48.274;7.794;2023-03-04T04:16:02;71.38;;;35.47;;
21721;SDS011;11023;48.274;7.794;2023-03-04T04:18:28;59.13;;;32.80;;
21721;SDS011;11023;48.274;7.794;2023-03-04T04:20:54;64.05;;;32.92;;
21721;SDS011;11023;48.274;7.794;2023-03-04T04:23:20;64.45;;;32.35;;
21721;SDS011;11023;48.274;7.794;2023-03-04T04:25:46;61.42;;;32.33;;
21721;SDS011;11023;48.274;7.794;2023-03-04T04:28:11;66.43;;;35.22;;
21721;SDS011;11023;48.274;7.794;2023-03-04T04:30:37;62.13;;;32.90;;
21721;SDS011;11023;48.274;7.794;2023-03-04T04:33:03;60.60;;;33.00;;
21721;SDS011;11023;48.274;7.794;2023-03-04T04:35:31;60.67;;;31.63;;
21721;SDS011;11023;48.274;7.794;2023-03-04T04:37:59;64.32;;;33.38;;
21721;SDS011;11023;48.274;7.794;2023-03-04T04:40:24;66.45;;;33.28;;
21721;SDS011;11023;48.274;7.794;2023-03-04T04:42:50;65.88;;;33.58;;
21721;SDS011;11023;48.274;7.794;2023-03-04T04:45:16;68.28;;;33.72;;
21721;SDS011;11023;48.274;7.794;2023-03-04T04:47:42;65.45;;;34.03;;
21721;SDS011;11023;48.274;7.794;2023-03-04T04:50:08;57.65;;;31.27;;
21721;SDS011;11023;48.274;7.794;2023-03-04T04:52:34;66.43;;;34.58;;
21721;SDS011;11023;48.274;7.794;2023-03-04T04:55:00;64.95;;;34.20;;
21721;SDS011;11023;48.274;7.794;2023-03-04T04:57:26;59.90;;;31.33;;
21721;SDS011;11023;48.274;7.794;2023-03-04T04:59:51;64.85;;;34.42;;
21721;SDS011;11023;48.274;7.794;2023-03-04T05:02:18;63.38;;;32.50;;
21721;SDS011;11023;48.274;7.794;2023-03-04T05:04:44;70.28;;;34.42;;
21721;SDS011;11023;48.274;7.794;2023-03-04T05:07:09;66.63;;;33.65;;
21721;SDS011;11023;48.274;7.794;2023-03-04T05:09:35;59.38;;;32.28;;
21721;SDS011;11023;48.274;7.794;2023-03-04T05:12:01;65.80;;;33.20;;
21721;SDS011;11023;48.274;7.794;2023-03-04T05:14:26;64.00;;;33.97;;
21721;SDS011;11023;48.274;7.794;2023-03-04T05:16:52;61.60;;;32.15;;
21721;SDS011;11023;48.274;7.794;2023-03-04T05:19:18;67.95;;;33.83;;
21721;SDS011;11023;48.274;7.794;2023-03-04T05:21:44;61.47;;;32.88;;
21721;SDS011;11023;48.274;7.794;2023-03-04T05:24:10;64.80;;;33.80;;
21721;SDS011;11023;48.274;7.794;2023-03-04T05:26:36;69.95;;;34.15;;
21721;SDS011;11023;48.274;7.794;2023-03-04T05:29:02;67.53;;;33.88;;
21721;SDS011;11023;48.274;7.794;2023-03-04T05:31:28;63.53;;;33.97;;
21721;SDS011;11023;48.274;7.794;2023-03-04T05:33:53;67.40;;;34.60;;
21721;SDS011;11023;48.274;7.794;2023-03-04T05:36:19;68.90;;;35.20;;
21721;SDS011;11023;48.274;7.794;2023-03-04T05:38:45;67.10;;;34.80;;
21721;SDS011;11023;48.274;7.794;2023-03-04T05:41:11;64.60;;;33.83;;
21721;SDS011;11023;48.274;7.794;2023-03-04T05:43:36;67.50;;;33.08;;
21721;SDS011;11023;48.274;7.794;2023-03-04T05:46:07;68.70;;;33.95;;
21721;SDS011;11023;48.274;7.794;2023-03-04T05:48:36;66.10;;;34.35;;
21721;SDS011;11023;48.274;7.794;2023-03-04T05:51:01;69.22;;;33.72;;
21721;SDS011;11023;48.274;7.794;2023-03-04T05:53:27;66.47;;;34.42;;
21721;SDS011;11023;48.274;7.794;2023-03-04T05:55:53;71.97;;;37.00;;
21721;SDS011;11023;48.274;7.794;2023-03-04T05:58:19;70.30;;;36.15;;
21721;SDS011;11023;48.274;7.794;2023-03-04T06:00:45;67.55;;;34.60;;
21721;SDS011;11023;48.274;7.794;2023-03-04T06:03:15;74.95;;;37.58;;
21721;SDS011;11023;48.274;7.794;2023-03-04T06:05:42;75.72;;;37.40;;
21721;SDS011;11023;48.274;7.794;2023-03-04T06:08:08;65.03;;;34.90;;
21721;SDS011;11023;48.274;7.794;2023-03-04T06:10:34;71.22;;;36.03;;
21721;SDS011;11023;48.274;7.794;2023-03-04T06:13:00;73.38;;;38.08;;
21721;SDS011;11023;48.274;7.794;2023-03-04T06:15:25;71.35;;;36.40;;
21721;SDS011;11023;48.274;7.794;2023-03-04T06:17:51;71.32;;;35.75;;
21721;SDS011;11023;48.274;7.794;2023-03-04T06:20:17;60.72;;;32.97;;
21721;SDS011;11023;48.274;7.794;2023-03-04T06:22:42;70.90;;;35.13;;
21721;SDS011;11023;48.274;7.794;2023-03-04T06:25:08;64.15;;;35.00;;
21721;SDS011;11023;48.274;7.794;2023-03-04T06:27:34;70.65;;;36.50;;
21721;SDS011;11023;48.274;7.794;2023-03-04T06:30:00;66.47;;;34.70;;
21721;SDS011;11023;48.274;7.794;2023-03-04T06:32:26;71.28;;;36.30;;
21721;SDS011;11023;48.274;7.794;2023-03-04T06:34:52;62.05;;;32.90;;
21721;SDS011;11023;48.274;7.794;2023-03-04T06:37:18;65.93;;;32.85;;
21721;SDS011;11023;48.274;7.794;2023-03-04T06:39:43;68.18;;;35.15;;
21721;SDS011;11023;48.274;7.794;2023-03-04T06:42:10;66.45;;;33.63;;
21721;SDS011;11023;48.274;7.794;2023-03-04T06:44:36;67.10;;;34.75;;
21721;SDS011;11023;48.274;7.794;2023-03-04T06:47:02;70.10;;;36.45;;
21721;SDS011;11023;48.274;7.794;2023-03-04T06:49:28;69.53;;;36.55;;
21721;SDS011;11023;48.274;7.794;2023-03-04T06:51:54;65.90;;;35.15;;
21721;SDS011;11023;48.274;7.794;2023-03-04T06:54:19;65.20;;;34.40;;
21721;SDS011;11023;48.274;7.794;2023-03-04T06:56:45;67.45;;;34.60;;
21721;SDS011;11023;48.274;7.794;2023-03-04T06:59:11;70.45;;;35.95;;
21721;SDS011;11023;48.274;7.794;2023-03-04T07:01:37;68.82;;;36.00;;
21721;SDS011;11023;48.274;7.794;2023-03-04T07:04:03;66.68;;;35.53;;
21721;SDS011;11023;48.274;7.794;2023-03-04T07:06:29;72.85;;;37.63;;
21721;SDS011;11023;48.274;7.794;2023-03-04T07:08:55;72.50;;;38.17;;
21721;SDS011;11023;48.274;7.794;2023-03-04T07:11:22;69.25;;;36.80;;
21721;SDS011;11023;48.274;7.794;2023-03-04T07:13:48;69.22;;;35.28;;
21721;SDS011;11023;48.274;7.794;2023-03-04T07:16:15;72.00;;;36.85;;
21721;SDS011;11023;48.274;7.794;2023-03-04T07:18:43;74.43;;;37.75;;
21721;SDS011;11023;48.274;7.794;2023-03-04T07:21:09;68.13;;;36.00;;
21721;SDS011;11023;48.274;7.794;2023-03-04T07:23:36;71.60;;;36.35;;
21721;SDS011;11023;48.274;7.794;2023-03-04T07:26:02;72.28;;;38.22;;
21721;SDS011;11023;48.274;7.794;2023-03-04T07:28:28;70.43;;;36.60;;
21721;SDS011;11023;48.274;7.794;2023-03-04T07:30:54;72.18;;;38.55;;
21721;SDS011;11023;48.274;7.794;2023-03-04T07:33:20;74.53;;;38.38;;
21721;SDS011;11023;48.274;7.794;2023-03-04T07:35:45;75.63;;;39.63;;
21721;SDS011;11023;48.274;7.794;2023-03-04T07:38:11;81.30;;;41.42;;
21721;SDS011;11023;48.274;7.794;2023-03-04T07:40:37;74.85;;;37.65;;
21721;SDS011;11023;48.274;7.794;2023-03-04T07:43:03;71.90;;;38.15;;
21721;SDS011;11023;48.274;7.794;2023-03-04T07:45:30;79.15;;;39.40;;
21721;SDS011;11023;48.274;7.794;2023-03-04T07:47:57;78.72;;;40.78;;
21721;SDS011;11023;48.274;7.794;2023-03-04T07:50:23;69.28;;;37.25;;
21721;SDS011;11023;48.274;7.794;2023-03-04T07:52:49;72.00;;;38.05;;
21721;SDS011;11023;48.274;7.794;2023-03-04T07:55:15;72.38;;;38.42;;
21721;SDS011;11023;48.274;7.794;2023-03-04T07:57:42;75.32;;;39.47;;
21721;SDS011;11023;48.274;7.794;2023-03-04T08:00:10;78.50;;;37.83;;
21721;SDS011;11023;48.274;7.794;2023-03-04T08:02:38;90.32;;;39.88;;
21721;SDS011;11023;48.274;7.794;2023-03-04T08:05:05;92.38;;;40.00;;
21721;SDS011;11023;48.274;7.794;2023-03-04T08:07:31;85.18;;;37.95;;
21721;SDS011;11023;48.274;7.794;2023-03-04T08:09:57;86.22;;;39.30;;
21721;SDS011;11023;48.274;7.794;2023-03-04T08:12:24;80.15;;;37.95;;
21721;SDS011;11023;48.274;7.794;2023-03-04T08:14:50;90.15;;;39.85;;
21721;SDS011;11023;48.274;7.794;2023-03-04T08:17:16;81.07;;;39.25;;
21721;SDS011;11023;48.274;7.794;2023-03-04T08:19:42;84.65;;;38.78;;
21721;SDS011;11023;48.274;7.794;2023-03-04T08:22:08;88.00;;;38.88;;
21721;SDS011;11023;48.274;7.794;2023-03-04T08:24:34;98.80;;;41.70;;
21721;SDS011;11023;48.274;7.794;2023-03-04T08:27:00;103.32;;;41.35;;
21721;SDS011;11023;48.274;7.794;2023-03-04T08:29:26;101.22;;;40.50;;
21721;SDS011;11023;48.274;7.794;2023-03-04T08:31:52;106.15;;;42.25;;
21721;SDS011;11023;48.274;7.794;2023-03-04T08:34:22;97.78;;;37.97;;
21721;SDS011;11023;48.274;7.794;2023-03-04T08:36:52;100.38;;;39.70;;
21721;SDS011;11023;48.274;7.794;2023-03-04T08:39:18;99.13;;;40.70;;
21721;SDS011;11023;48.274;7.794;2023-03-04T08:41:46;103.03;;;41.40;;
21721;SDS011;11023;48.274;7.794;2023-03-04T08:44:12;102.95;;;42.30;;
21721;SDS011;11023;48.274;7.794;2023-03-04T08:46:39;105.93;;;43.35;;
21721;SDS011;11023;48.274;7.794;2023-03-04T08:49:06;106.32;;;42.92;;
21721;SDS011;11023;48.274;7.794;2023-03-04T08:51:33;104.55;;;41.97;;
21721;SDS011;11023;48.274;7.794;2023-03-04T08:54:00;101.95;;;42.33;;
21721;SDS011;11023;48.274;7.794;2023-03-04T08:56:26;96.47;;;40.60;;
21721;SDS011;11023;48.274;7.794;2023-03-04T08:58:52;106.05;;;44.05;;
21721;SDS011;11023;48.274;7.794;2023-03-04T09:01:18;108.60;;;42.85;;
21721;SDS011;11023;48.274;7.794;2023-03-04T09:03:45;106.82;;;42.83;;
21721;SDS011;11023;48.274;7.794;2023-03-04T09:06:15;98.65;;;41.35;;
21721;SDS011;11023;48.274;7.794;2023-03-04T09:08:41;101.25;;;40.10;;
21721;SDS011;11023;48.274;7.794;2023-03-04T09:11:08;88.55;;;38.72;;
21721;SDS011;11023;48.274;7.794;2023-03-04T09:13:34;89.95;;;39.25;;
21721;SDS011;11023;48.274;7.794;2023-03-04T09:16:00;90.25;;;39.13;;
21721;SDS011;11023;48.274;7.794;2023-03-04T09:18:26;89.80;;;39.85;;
21721;SDS011;11023;48.274;7.794;2023-03-04T09:20:53;91.10;;;40.63;;
21721;SDS011;11023;48.274;7.794;2023-03-04T09:23:19;96.90;;;42.10;;
21721;SDS011;11023;48.274;7.794;2023-03-04T09:25:46;91.07;;;41.05;;
21721;SDS011;11023;48.274;7.794;2023-03-04T09:28:13;91.47;;;41.70;;
21721;SDS011;11023;48.274;7.794;2023-03-04T09:30:39;84.57;;;39.95;;
21721;SDS011;11023;48.274;7.794;2023-03-04T09:33:05;85.85;;;39.50;;
21721;SDS011;11023;48.274;7.794;2023-03-04T09:35:31;84.72;;;38.65;;
21721;SDS011;11023;48.274;7.794;2023-03-04T09:37:57;86.15;;;38.78;;
21721;SDS011;11023;48.274;7.794;2023-03-04T09:40:25;81.22;;;37.47;;
21721;SDS011;11023;48.274;7.794;2023-03-04T09:42:55;82.50;;;38.63;;
21721;SDS011;11023;48.274;7.794;2023-03-04T09:45:35;86.20;;;37.55;;
21721;SDS011;11023;48.274;7.794;2023-03-04T09:48:06;76.97;;;36.65;;
21721;SDS011;11023;48.274;7.794;2023-03-04T09:50:35;78.85;;;35.42;;
21721;SDS011;11023;48.274;7.794;2023-03-04T09:55:47;77.05;;;37.00;;
21721;SDS011;11023;48.274;7.794;2023-03-04T09:58:32;84.97;;;37.70;;
21721;SDS011;11023;48.274;7.794;2023-03-04T10:01:22;85.47;;;38.22;;
21721;SDS011;11023;48.274;7.794;2023-03-04T10:03:54;80.32;;;36.83;;
21721;SDS011;11023;48.274;7.794;2023-03-04T10:06:25;78.45;;;37.72;;
21721;SDS011;11023;48.274;7.794;2023-03-04T10:11:34;78.88;;;35.35;;
21721;SDS011;11023;48.274;7.794;2023-03-04T10:17:02;78.47;;;36.45;;
21721;SDS011;11023;48.274;7.794;2023-03-04T10:24:55;73.32;;;35.50;;
21721;SDS011;11023;48.274;7.794;2023-03-04T10:27:22;72.47;;;36.58;;
21721;SDS011;11023;48.274;7.794;2023-03-04T10:29:49;77.53;;;36.50;;
21721;SDS011;11023;48.274;7.794;2023-03-04T10:32:16;74.35;;;35.47;;
21721;SDS011;11023;48.274;7.794;2023-03-04T10:34:44;77.10;;;35.00;;
21721;SDS011;11023;48.274;7.794;2023-03-04T10:37:10;72.03;;;36.17;;
21721;SDS011;11023;48.274;7.794;2023-03-04T10:39:45;72.60;;;35.63;;
21721;SDS011;11023;48.274;7.794;2023-03-04T10:44:43;74.53;;;35.60;;
21721;SDS011;11023;48.274;7.794;2023-03-04T10:47:15;72.93;;;35.38;;
21721;SDS011;11023;48.274;7.794;2023-03-04T10:49:48;66.28;;;34.22;;
21721;SDS011;11023;48.274;7.794;2023-03-04T10:54:51;69.20;;;34.35;;
21721;SDS011;11023;48.274;7.794;2023-03-04T10:57:24;64.93;;;33.40;;
21721;SDS011;11023;48.274;7.794;2023-03-04T11:00:00;62.67;;;33.15;;
21721;SDS011;11023;48.274;7.794;2023-03-04T11:02:52;68.75;;;32.10;;
21721;SDS011;11023;48.274;7.794;2023-03-04T11:05:48;61.67;;;32.17;;
21721;SDS011;11023;48.274;7.794;2023-03-04T11:08:18;63.90;;;32.38;;
21721;SDS011;11023;48.274;7.794;2023-03-04T11:10:46;61.33;;;32.10;;
21721;SDS011;11023;48.274;7.794;2023-03-04T11:13:16;63.42;;;33.25;;
21721;SDS011;11023;48.274;7.794;2023-03-04T11:16:22;64.43;;;33.33;;
21721;SDS011;11023;48.274;7.794;2023-03-04T11:18:53;62.28;;;32.00;;
21721;SDS011;11023;48.274;7.794;2023-03-04T11:21:24;56.95;;;31.15;;
21721;SDS011;11023;48.274;7.794;2023-03-04T11:24:01;59.70;;;32.28;;
21721;SDS011;11023;48.274;7.794;2023-03-04T11:29:34;59.70;;;32.22;;
21721;SDS011;11023;48.274;7.794;2023-03-04T11:38:01;61.78;;;35.55;;
21721;SDS011;11023;48.274;7.794;2023-03-04T11:43:57;59.05;;;34.20;;
21721;SDS011;11023;48.274;7.794;2023-03-04T11:46:36;64.88;;;36.40;;
21721;SDS011;11023;48.274;7.794;2023-03-04T11:49:24;60.15;;;34.50;;
21721;SDS011;11023;48.274;7.794;2023-03-04T12:12:22;64.47;;;37.13;;
21721;SDS011;11023;48.274;7.794;2023-03-04T12:20:08;66.85;;;38.83;;
21721;SDS011;11023;48.274;7.794;2023-03-04T12:22:54;69.97;;;38.25;;
21721;SDS011;11023;48.274;7.794;2023-03-04T12:25:40;64.25;;;36.40;;
21721;SDS011;11023;48.274;7.794;2023-03-04T12:31:54;66.57;;;37.30;;
21721;SDS011;11023;48.274;7.794;2023-03-04T12:48:18;64.57;;;36.53;;
21721;SDS011;11023;48.274;7.794;2023-03-04T12:56:17;74.28;;;38.03;;
21721;SDS011;11023;48.274;7.794;2023-03-04T12:58:50;67.03;;;37.88;;
21721;SDS011;11023;48.274;7.794;2023-03-04T13:01:22;64.63;;;37.50;;
21721;SDS011;11023;48.274;7.794;2023-03-04T13:04:18;71.43;;;38.30;;
21721;SDS011;11023;48.274;7.794;2023-03-04T13:09:54;66.40;;;37.65;;
21721;SDS011;11023;48.274;7.794;2023-03-04T13:12:25;68.65;;;39.03;;
21721;SDS011;11023;48.274;7.794;2023-03-04T13:22:44;66.78;;;37.47;;
21721;SDS011;11023;48.274;7.794;2023-03-04T13:28:23;68.05;;;37.42;;
21721;SDS011;11023;48.274;7.794;2023-03-04T13:36:04;64.97;;;36.75;;
21721;SDS011;11023;48.274;7.794;2023-03-04T13:41:31;65.30;;;35.55;;
21721;SDS011;11023;48.274;7.794;2023-03-04T13:46:56;66.93;;;37.10;;
21721;SDS011;11023;48.274;7.794;2023-03-04T13:49:30;63.40;;;35.15;;
21721;SDS011;11023;48.274;7.794;2023-03-04T13:51:56;66.32;;;37.30;;
21721;SDS011;11023;48.274;7.794;2023-03-04T13:54:30;71.50;;;37.28;;
21721;SDS011;11023;48.274;7.794;2023-03-04T14:02:13;61.63;;;35.33;;
21721;SDS011;11023;48.274;7.794;2023-03-04T14:05:05;67.22;;;37.17;;
21721;SDS011;11023;48.274;7.794;2023-03-04T14:07:32;65.35;;;36.08;;
21721;SDS011;11023;48.274;7.794;2023-03-04T14:10:00;63.72;;;36.42;;
21721;SDS011;11023;48.274;7.794;2023-03-04T14:12:33;63.05;;;35.45;;
21721;SDS011;11023;48.274;7.794;2023-03-04T14:15:47;68.68;;;37.90;;
21721;SDS011;11023;48.274;7.794;2023-03-04T14:17:56;64.13;;;36.53;;
21721;SDS011;11023;48.274;7.794;2023-03-04T14:23:03;60.47;;;34.45;;
21721;SDS011;11023;48.274;7.794;2023-03-04T14:25:47;63.33;;;35.47;;
21721;SDS011;11023;48.274;7.794;2023-03-04T14:28:14;62.22;;;34.33;;
21721;SDS011;11023;48.274;7.794;2023-03-04T14:30:41;62.10;;;34.97;;
21721;SDS011;11023;48.274;7.794;2023-03-04T14:33:11;60.40;;;34.90;;
21721;SDS011;11023;48.274;7.794;2023-03-04T14:35:52;61.78;;;34.38;;
21721;SDS011;11023;48.274;7.794;2023-03-04T14:38:24;64.05;;;33.67;;
21721;SDS011;11023;48.274;7.794;2023-03-04T14:43:40;61.42;;;32.75;;
21721;SDS011;11023;48.274;7.794;2023-03-04T14:46:29;62.67;;;34.88;;
21721;SDS011;11023;48.274;7.794;2023-03-04T14:49:00;59.78;;;34.17;;
21721;SDS011;11023;48.274;7.794;2023-03-04T14:54:21;63.15;;;34.75;;
21721;SDS011;11023;48.274;7.794;2023-03-04T14:56:51;68.03;;;35.80;;
21721;SDS011;11023;48.274;7.794;2023-03-04T14:59:17;61.95;;;33.63;;
21721;SDS011;11023;48.274;7.794;2023-03-04T15:01:51;62.78;;;33.72;;
21721;SDS011;11023;48.274;7.794;2023-03-04T15:04:17;64.65;;;35.00;;
21721;SDS011;11023;48.274;7.794;2023-03-04T15:06:51;63.75;;;34.75;;
21721;SDS011;11023;48.274;7.794;2023-03-04T15:09:18;64.65;;;36.63;;
21721;SDS011;11023;48.274;7.794;2023-03-04T15:11:47;63.38;;;35.83;;
21721;SDS011;11023;48.274;7.794;2023-03-04T15:17:41;64.45;;;35.25;;
21721;SDS011;11023;48.274;7.794;2023-03-04T15:25:12;128.43;;;74.00;;
21721;SDS011;11023;48.274;7.794;2023-03-04T15:27:43;86.45;;;50.85;;
21721;SDS011;11023;48.274;7.794;2023-03-04T15:30:14;75.45;;;41.72;;
21721;SDS011;11023;48.274;7.794;2023-03-04T15:32:41;69.85;;;38.65;;
21721;SDS011;11023;48.274;7.794;2023-03-04T15:35:16;67.13;;;36.80;;
21721;SDS011;11023;48.274;7.794;2023-03-04T15:37:43;72.45;;;37.17;;
21721;SDS011;11023;48.274;7.794;2023-03-04T15:40:17;72.00;;;39.67;;
21721;SDS011;11023;48.274;7.794;2023-03-04T15:42:50;68.68;;;36.97;;
21721;SDS011;11023;48.274;7.794;2023-03-04T15:45:22;69.82;;;37.40;;
21721;SDS011;11023;48.274;7.794;2023-03-04T15:47:53;67.80;;;36.03;;
21721;SDS011;11023;48.274;7.794;2023-03-04T15:50:19;67.90;;;36.90;;
21721;SDS011;11023;48.274;7.794;2023-03-04T15:52:45;72.90;;;37.78;;
21721;SDS011;11023;48.274;7.794;2023-03-04T15:55:18;72.05;;;36.40;;
21721;SDS011;11023;48.274;7.794;2023-03-04T15:57:46;69.97;;;36.47;;
21721;SDS011;11023;48.274;7.794;2023-03-04T16:00:16;72.30;;;36.45;;
21721;SDS011;11023;48.274;7.794;2023-03-04T16:02:42;74.18;;;36.83;;
21721;SDS011;11023;48.274;7.794;2023-03-04T16:05:08;71.88;;;37.63;;
21721;SDS011;11023;48.274;7.794;2023-03-04T16:07:34;72.88;;;38.38;;
21721;SDS011;11023;48.274;7.794;2023-03-04T16:10:11;77.47;;;37.47;;
21721;SDS011;11023;48.274;7.794;2023-03-04T16:12:44;76.28;;;35.88;;
21721;SDS011;11023;48.274;7.794;2023-03-04T16:15:17;70.78;;;36.80;;
21721;SDS011;11023;48.274;7.794;2023-03-04T16:17:45;77.38;;;37.03;;
21721;SDS011;11023;48.274;7.794;2023-03-04T16:20:12;71.38;;;36.75;;
21721;SDS011;11023;48.274;7.794;2023-03-04T16:22:39;68.15;;;35.92;;
21721;SDS011;11023;48.274;7.794;2023-03-04T16:25:08;73.18;;;36.80;;
21721;SDS011;11023;48.274;7.794;2023-03-04T16:27:36;75.07;;;38.40;;
21721;SDS011;11023;48.274;7.794;2023-03-04T16:30:02;72.07;;;35.60;;
21721;SDS011;11023;48.274;7.794;2023-03-04T16:32:28;73.75;;;37.28;;
21721;SDS011;11023;48.274;7.794;2023-03-04T16:34:54;71.38;;;36.78;;
21721;SDS011;11023;48.274;7.794;2023-03-04T16:37:20;75.30;;;37.90;;
21721;SDS011;11023;48.274;7.794;2023-03-04T16:39:45;69.93;;;35.85;;
21721;SDS011;11023;48.274;7.794;2023-03-04T16:42:16;72.75;;;35.20;;